createdAt,value
2023-02-15T00:00:15.177Z,9.15
2023-02-15T00:02:44.749Z,9.60
2023-02-15T00:05:14.359Z,10.77
2023-02-15T00:07:43.927Z,9.52
2023-02-15T00:10:14.677Z,9.07
2023-02-15T00:12:44.299Z,8.93
2023-02-15T00:17:34.623Z,9.73
2023-02-15T00:20:04.195Z,8.88
2023-02-15T00:24:53.489Z,8.75
2023-02-15T02:07:38.866Z,8.85
2023-02-15T02:22:18.694Z,7.68
2023-02-15T02:32:15.012Z,5.97
2023-02-15T04:38:56.176Z,6.15
2023-02-15T04:41:25.761Z,5.60
2023-02-15T04:43:55.488Z,7.07
2023-02-15T04:46:25.232Z,7.20
2023-02-15T04:48:54.958Z,6.90
2023-02-15T04:51:24.707Z,7.03
2023-02-15T04:53:55.409Z,6.35
2023-02-15T04:56:25.194Z,6.97
2023-02-15T04:58:54.863Z,6.40
2023-02-15T05:01:24.592Z,6.28
2023-02-15T05:03:54.271Z,5.75
2023-02-15T05:06:24.181Z,6.18
2023-02-15T05:08:53.783Z,6.00
2023-02-15T05:11:23.598Z,5.57
2023-02-15T05:13:53.220Z,5.93
2023-02-15T05:16:23.026Z,5.30
2023-02-15T05:18:52.684Z,5.80
2023-02-15T05:21:22.242Z,6.55
2023-02-15T05:23:52.011Z,6.03
2023-02-15T05:26:44.373Z,5.28
2023-02-15T05:29:14.612Z,5.85
2023-02-15T05:31:44.727Z,6.20
2023-02-15T05:34:14.578Z,5.80
2023-02-15T05:36:44.316Z,6.60
2023-02-15T05:39:15.033Z,6.05
2023-02-15T05:41:44.678Z,6.28
2023-02-15T05:44:14.297Z,7.32
2023-02-15T05:46:43.936Z,6.05
2023-02-15T05:49:13.618Z,7.72
2023-02-15T05:51:43.259Z,7.10
2023-02-15T05:54:12.774Z,7.18
2023-02-15T05:56:42.404Z,6.65
2023-02-15T05:59:12.044Z,6.82
2023-02-15T06:01:41.646Z,6.57
2023-02-15T06:04:11.378Z,7.65
2023-02-15T06:06:41.034Z,6.53
2023-02-15T06:09:10.624Z,7.03
2023-02-15T06:11:40.316Z,7.25
2023-02-15T06:14:09.869Z,7.47
2023-02-15T06:16:39.465Z,6.40
2023-02-15T06:19:09.539Z,7.25
2023-02-15T06:21:39.125Z,6.53
2023-02-15T06:24:08.898Z,7.80
2023-02-15T06:26:38.620Z,6.72
2023-02-15T06:29:08.291Z,7.15
2023-02-15T06:31:37.900Z,7.85
2023-02-15T06:34:07.737Z,7.45
2023-02-15T06:36:37.693Z,7.57
2023-02-15T06:39:08.055Z,8.25
2023-02-15T06:41:38.617Z,7.32
2023-02-15T06:44:08.447Z,8.07
2023-02-15T06:46:38.152Z,8.75
2023-02-15T06:49:07.904Z,8.07
2023-02-15T06:51:37.661Z,8.27
2023-02-15T06:56:52.111Z,8.32
2023-02-15T06:59:21.665Z,8.35
2023-02-15T07:01:52.536Z,8.43
2023-02-15T07:04:22.190Z,8.02
2023-02-15T07:06:53.612Z,8.70
2023-02-15T07:09:24.023Z,8.30
2023-02-15T07:12:13.471Z,7.65
2023-02-15T07:14:43.254Z,7.32
2023-02-15T07:17:32.867Z,7.88
2023-02-15T07:20:02.447Z,8.18
2023-02-15T07:22:32.174Z,8.27
2023-02-15T07:25:01.809Z,8.10
2023-02-15T07:27:31.679Z,8.48
2023-02-15T07:30:01.802Z,8.07
2023-02-15T07:32:36.449Z,8.43
2023-02-15T07:35:06.423Z,8.48
2023-02-15T07:37:36.049Z,9.35
2023-02-15T07:40:06.563Z,7.90
2023-02-15T07:42:36.768Z,8.65
2023-02-15T07:45:06.510Z,8.05
2023-02-15T07:47:36.136Z,7.65
2023-02-15T07:50:05.804Z,7.25
2023-02-15T07:52:35.397Z,7.32
2023-02-15T07:55:05.229Z,7.97
2023-02-15T07:57:34.958Z,7.82
2023-02-15T08:00:04.778Z,7.38
2023-02-15T08:02:34.492Z,7.18
2023-02-15T08:05:04.149Z,7.15
2023-02-15T08:07:33.704Z,6.40
2023-02-15T08:10:03.357Z,7.55
2023-02-15T08:12:33.037Z,8.05
2023-02-15T08:15:02.670Z,6.93
2023-02-15T08:17:32.412Z,6.90
2023-02-15T08:20:02.009Z,6.95
2023-02-15T08:22:32.363Z,7.38
2023-02-15T08:25:01.994Z,7.35
2023-02-15T08:27:31.510Z,6.80
2023-02-15T08:30:01.117Z,7.82
2023-02-15T08:32:30.820Z,7.93
2023-02-15T08:35:00.357Z,7.63
2023-02-15T08:37:29.944Z,7.55
2023-02-15T08:39:59.509Z,7.55
2023-02-15T08:42:29.220Z,7.85
2023-02-15T08:44:59.546Z,8.40
2023-02-15T08:47:29.327Z,7.97
2023-02-15T08:49:59.006Z,7.50
2023-02-15T08:52:28.643Z,7.55
2023-02-15T08:54:58.334Z,7.95
2023-02-15T08:57:28.000Z,6.88
2023-02-15T08:59:57.734Z,7.35
2023-02-15T09:02:27.552Z,7.70
2023-02-15T09:04:58.077Z,7.50
2023-02-15T09:07:27.668Z,7.93
2023-02-15T09:09:57.371Z,7.72
2023-02-15T09:12:27.057Z,8.13
2023-02-15T09:14:56.647Z,9.13
2023-02-15T09:17:26.318Z,8.38
2023-02-15T09:19:55.926Z,7.78
2023-02-15T09:22:25.536Z,8.38
2023-02-15T09:24:55.219Z,8.05
2023-02-15T09:27:24.836Z,8.43
2023-02-15T09:29:54.531Z,8.05
2023-02-15T09:32:24.832Z,7.30
2023-02-15T09:34:54.498Z,7.63
2023-02-15T09:37:24.233Z,7.15
2023-02-15T09:39:53.884Z,7.80
2023-02-15T09:43:01.499Z,7.80
2023-02-15T09:48:41.417Z,7.93
2023-02-15T09:51:34.989Z,7.88
2023-02-15T09:54:29.707Z,7.55
2023-02-15T09:57:08.472Z,7.80
2023-02-15T10:00:14.297Z,6.60
2023-02-15T10:03:23.456Z,6.72
2023-02-15T10:06:31.696Z,6.47
2023-02-15T10:09:30.902Z,7.22
2023-02-15T10:12:20.486Z,7.20
2023-02-15T10:15:14.744Z,6.80
2023-02-15T10:18:08.996Z,7.40
2023-02-15T10:21:04.970Z,7.13
2023-02-15T10:24:14.821Z,6.68
2023-02-15T10:26:49.196Z,7.80
2023-02-15T10:29:39.648Z,7.15
2023-02-15T10:32:28.737Z,6.72
2023-02-15T10:35:09.897Z,6.90
2023-02-15T10:38:18.695Z,6.20
2023-02-15T10:41:25.589Z,7.05
2023-02-15T10:44:22.243Z,6.22
2023-02-15T10:47:19.678Z,7.00
2023-02-15T10:50:20.721Z,8.23
2023-02-15T10:53:29.469Z,6.30
2023-02-15T10:56:23.170Z,6.72
2023-02-15T10:59:31.974Z,6.43
2023-02-15T11:02:30.715Z,7.50
2023-02-15T11:05:29.866Z,7.95
2023-02-15T11:08:02.883Z,6.68
2023-02-15T11:10:57.961Z,6.95
2023-02-15T11:13:31.769Z,6.20
2023-02-15T11:16:21.207Z,6.32
2023-02-15T11:19:22.057Z,6.22
2023-02-15T11:21:57.963Z,6.80
2023-02-15T11:24:31.523Z,6.90
2023-02-15T11:27:23.733Z,7.25
2023-02-15T11:30:14.831Z,6.45
2023-02-15T11:32:48.930Z,7.00
2023-02-15T11:35:27.698Z,7.03
2023-02-15T11:38:24.679Z,8.05
2023-02-15T11:41:03.148Z,8.45
2023-02-15T11:44:01.531Z,7.18
2023-02-15T11:46:31.360Z,7.20
2023-02-15T11:49:02.224Z,7.93
2023-02-15T11:51:32.759Z,7.22
2023-02-15T11:54:02.911Z,7.13
2023-02-15T11:56:36.009Z,7.95
2023-02-15T11:59:14.894Z,7.15
2023-02-15T12:01:48.237Z,7.55
2023-02-15T12:04:43.478Z,8.48
2023-02-15T12:07:40.670Z,8.57
2023-02-15T12:10:45.799Z,9.10
2023-02-15T12:13:18.598Z,11.57
2023-02-15T12:15:52.907Z,10.25
2023-02-15T12:18:47.198Z,11.98
2023-02-15T12:21:33.987Z,11.65
2023-02-15T12:24:33.190Z,13.43
2023-02-15T12:27:29.966Z,13.15
2023-02-15T12:30:20.243Z,14.65
2023-02-15T12:33:15.493Z,15.25
2023-02-15T12:35:47.085Z,13.50
2023-02-15T12:38:28.059Z,20.05
2023-02-15T12:41:03.966Z,19.45
2023-02-15T12:43:37.425Z,20.63
2023-02-15T12:46:28.164Z,19.33
2023-02-15T12:49:20.936Z,16.98
2023-02-15T12:52:00.699Z,14.55
2023-02-15T12:54:39.565Z,15.43
2023-02-15T12:57:33.306Z,16.17
2023-02-15T13:00:27.925Z,15.50
2023-02-15T13:03:00.542Z,16.25
2023-02-15T13:05:38.775Z,16.73
2023-02-15T13:08:36.217Z,15.98
2023-02-15T13:11:15.810Z,15.80
2023-02-15T13:14:06.859Z,15.07
2023-02-15T13:16:40.924Z,15.07
2023-02-15T13:19:34.786Z,15.55
2023-02-15T13:22:13.697Z,14.30
2023-02-15T13:24:49.238Z,13.43
2023-02-15T13:27:24.272Z,14.05
2023-02-15T13:30:00.993Z,14.30
2023-02-15T13:32:43.500Z,13.13
2023-02-15T13:35:21.640Z,12.73
2023-02-15T13:38:30.492Z,13.60
2023-02-15T13:41:10.165Z,12.93
2023-02-15T13:44:05.359Z,13.88
2023-02-15T13:46:55.676Z,13.57
2023-02-15T13:49:59.688Z,13.80
2023-02-15T13:52:33.884Z,15.05
2023-02-15T13:55:42.743Z,14.07
2023-02-15T13:58:51.800Z,16.85
2023-02-15T14:01:46.560Z,21.10
2023-02-15T14:04:52.613Z,21.70
2023-02-15T14:07:53.288Z,20.30
2023-02-15T14:11:02.336Z,21.58
2023-02-15T14:14:06.493Z,23.20
2023-02-15T14:17:07.758Z,21.08
2023-02-15T14:19:52.576Z,22.75
2023-02-15T14:22:47.050Z,22.10
2023-02-15T14:25:55.956Z,21.92
2023-02-15T14:29:05.321Z,21.20
2023-02-15T14:31:44.925Z,22.40
2023-02-15T14:34:27.609Z,22.20
2023-02-15T14:36:58.334Z,20.67
2023-02-15T14:40:26.699Z,20.38
2023-02-15T14:43:15.064Z,19.00
2023-02-15T14:46:20.159Z,18.55
2023-02-15T14:48:53.632Z,19.08
2023-02-15T14:52:00.741Z,18.65
2023-02-15T14:54:57.437Z,17.92
2023-02-15T14:57:29.260Z,18.77
2023-02-15T15:00:09.482Z,19.95
2023-02-15T15:02:58.910Z,18.40
2023-02-15T15:05:37.613Z,18.38
2023-02-15T15:08:09.226Z,18.58
2023-02-15T15:10:43.568Z,19.50
2023-02-15T15:13:40.500Z,17.95
2023-02-15T15:16:34.534Z,17.87
2023-02-15T15:19:05.683Z,17.55
2023-02-15T15:21:56.031Z,17.52
2023-02-15T15:25:04.885Z,18.40
2023-02-15T15:27:56.755Z,17.95
2023-02-15T15:30:53.073Z,17.33
2023-02-15T15:33:56.813Z,20.10
2023-02-15T15:37:05.635Z,18.40
2023-02-15T15:40:15.737Z,19.52
2023-02-15T15:43:23.559Z,17.42
2023-02-15T15:46:13.300Z,19.02
2023-02-15T15:48:44.876Z,18.48
2023-02-15T15:51:34.551Z,18.65
2023-02-15T15:54:06.644Z,17.70
2023-02-15T15:56:38.985Z,15.35
2023-02-15T15:59:14.941Z,16.60
2023-02-15T16:01:50.764Z,17.20
2023-02-15T16:04:33.169Z,16.98
2023-02-15T16:07:25.646Z,17.00
2023-02-15T16:10:25.802Z,18.77
2023-02-15T16:12:57.843Z,16.98
2023-02-15T16:15:34.122Z,18.75
2023-02-15T16:18:04.723Z,18.35
2023-02-15T16:20:39.754Z,17.88
2023-02-15T16:23:42.335Z,18.95
2023-02-15T16:26:34.244Z,18.90
2023-02-15T16:29:55.534Z,19.83
2023-02-15T16:32:27.997Z,20.60
2023-02-15T16:35:03.500Z,20.58
2023-02-15T16:37:37.667Z,20.45
2023-02-15T16:40:07.935Z,22.20
2023-02-15T16:42:38.673Z,20.95
2023-02-15T16:45:19.589Z,21.63
2023-02-15T16:47:53.461Z,18.13
2023-02-15T16:50:37.427Z,18.83
2023-02-15T16:53:10.072Z,18.67
2023-02-15T16:55:44.531Z,19.10
2023-02-15T16:58:28.511Z,19.52
2023-02-15T17:01:04.555Z,19.58
2023-02-15T17:03:34.632Z,22.52
2023-02-15T17:06:06.091Z,19.70
2023-02-15T17:08:44.351Z,19.20
2023-02-15T17:11:21.161Z,20.52
2023-02-15T17:14:16.920Z,20.15
2023-02-15T17:16:52.303Z,21.38
2023-02-15T17:19:59.519Z,23.25
2023-02-15T17:22:32.037Z,23.52
2023-02-15T17:25:03.941Z,22.13
2023-02-15T17:27:37.310Z,24.30
2023-02-15T17:30:19.870Z,25.48
2023-02-15T17:33:02.271Z,26.48
2023-02-15T17:35:36.521Z,25.45
2023-02-15T17:38:21.754Z,26.42
2023-02-15T17:40:51.444Z,27.67
2023-02-15T17:43:21.034Z,25.48
2023-02-15T17:45:52.953Z,26.65
2023-02-15T17:48:36.552Z,26.15
2023-02-15T17:51:08.312Z,26.40
2023-02-15T17:53:38.075Z,26.42
2023-02-15T17:56:12.468Z,25.85
2023-02-15T17:58:42.837Z,28.83
2023-02-15T18:01:41.162Z,28.70
2023-02-15T18:04:37.663Z,27.95
2023-02-15T18:07:26.941Z,28.70
2023-02-15T18:10:16.279Z,27.42
2023-02-15T18:12:45.979Z,26.45
2023-02-15T18:15:15.805Z,26.48
2023-02-15T18:17:48.775Z,25.83
2023-02-15T18:20:35.326Z,22.10
2023-02-15T18:23:05.173Z,20.55
2023-02-15T18:25:34.922Z,20.30
2023-02-15T18:28:04.637Z,17.40
2023-02-15T18:30:35.157Z,14.60
2023-02-15T18:33:06.015Z,15.93
2023-02-15T18:35:37.693Z,15.32
2023-02-15T18:38:07.427Z,15.93
2023-02-15T18:40:37.152Z,17.00
2023-02-15T18:43:07.035Z,15.65
2023-02-15T18:45:38.867Z,16.77
2023-02-15T18:48:11.538Z,19.83
2023-02-15T18:50:41.277Z,22.63
2023-02-15T18:53:19.336Z,23.63
2023-02-15T18:55:51.370Z,21.48
2023-02-15T18:58:24.043Z,21.15
2023-02-15T19:00:55.108Z,19.98
2023-02-15T19:03:24.626Z,18.77
2023-02-15T19:05:54.330Z,17.85
2023-02-15T19:08:26.397Z,17.45
2023-02-15T19:10:56.147Z,17.20
2023-02-15T19:13:25.702Z,15.70
2023-02-15T19:15:55.435Z,14.57
2023-02-15T19:18:25.053Z,15.15
2023-02-15T19:20:54.592Z,15.32
2023-02-15T19:23:26.046Z,14.73
2023-02-15T19:25:56.742Z,15.00
2023-02-15T19:28:34.092Z,13.32
2023-02-15T19:31:03.794Z,13.63
2023-02-15T19:33:33.595Z,14.07
2023-02-15T19:36:03.635Z,13.35
2023-02-15T19:38:38.202Z,15.90
2023-02-15T19:41:10.423Z,13.95
2023-02-15T19:43:40.135Z,13.52
2023-02-15T19:46:12.950Z,11.80
2023-02-15T19:48:42.617Z,10.75
2023-02-15T19:51:15.247Z,10.18
2023-02-15T19:53:44.974Z,10.45
2023-02-15T19:56:25.679Z,10.30
2023-02-15T19:58:59.443Z,10.13
2023-02-15T20:01:29.179Z,10.02
2023-02-15T20:03:58.965Z,9.68
2023-02-15T20:06:28.732Z,11.52
2023-02-15T20:08:59.462Z,11.48
2023-02-15T20:11:29.085Z,12.90
2023-02-15T20:13:58.790Z,12.95
2023-02-15T20:16:30.129Z,13.77
2023-02-15T20:18:59.754Z,15.77
2023-02-15T20:21:29.438Z,17.23
2023-02-15T20:23:59.204Z,18.10
2023-02-15T20:26:31.496Z,16.98
2023-02-15T20:29:02.276Z,18.65
2023-02-15T20:31:32.941Z,17.52
2023-02-15T20:34:02.607Z,16.20
2023-02-15T20:36:32.266Z,15.55
2023-02-15T20:39:05.304Z,15.13
2023-02-15T20:41:37.886Z,15.10
2023-02-15T20:44:28.074Z,14.98
2023-02-15T20:47:00.001Z,14.35
2023-02-15T20:49:30.612Z,15.88
2023-02-15T20:52:00.665Z,14.90
2023-02-15T20:54:35.453Z,15.35
2023-02-15T20:57:07.831Z,13.98
2023-02-15T20:59:43.892Z,12.70
2023-02-15T21:02:27.023Z,11.43
2023-02-15T21:04:57.257Z,11.90
2023-02-15T21:07:26.937Z,10.48
2023-02-15T21:09:56.669Z,8.25
2023-02-15T21:12:27.271Z,9.20
2023-02-15T21:14:56.894Z,7.22
2023-02-15T21:17:26.524Z,6.68
2023-02-15T21:19:56.285Z,5.57
2023-02-15T21:22:26.431Z,6.47
2023-02-15T21:24:56.665Z,5.90
2023-02-15T21:27:26.318Z,5.78
2023-02-15T21:29:55.987Z,5.30
2023-02-15T21:32:25.828Z,5.57
2023-02-15T21:34:55.570Z,5.20
2023-02-15T21:37:35.622Z,4.63
2023-02-15T21:40:08.609Z,5.00
2023-02-15T21:42:58.035Z,5.60
2023-02-15T21:45:47.297Z,5.03
2023-02-15T21:48:16.951Z,5.13
2023-02-15T21:51:06.420Z,4.32
2023-02-15T21:53:39.593Z,4.22
2023-02-15T21:56:12.710Z,4.35
2023-02-15T21:58:43.217Z,4.65
2023-02-15T22:01:32.650Z,4.72
2023-02-15T22:04:02.375Z,4.38
2023-02-15T22:06:32.002Z,4.57
2023-02-15T22:09:01.580Z,4.28
2023-02-15T22:11:33.773Z,3.95
2023-02-15T22:14:03.443Z,4.38
2023-02-15T22:16:33.165Z,4.40
2023-02-15T22:19:02.874Z,4.13
2023-02-15T22:21:33.042Z,4.00
2023-02-15T22:24:02.734Z,4.20
2023-02-15T22:26:32.964Z,4.55
2023-02-15T22:29:02.702Z,4.72
2023-02-15T22:31:32.537Z,4.68
2023-02-15T22:34:02.512Z,4.53
2023-02-15T22:36:33.020Z,5.15
2023-02-15T22:39:02.615Z,5.35
2023-02-15T22:41:33.494Z,5.00
2023-02-15T22:44:03.113Z,4.63
2023-02-15T22:46:32.825Z,4.90
2023-02-15T22:49:02.571Z,5.40
2023-02-15T22:51:32.324Z,5.78
2023-02-15T22:54:02.039Z,5.43
2023-02-15T22:56:42.204Z,6.72
2023-02-15T22:59:30.412Z,6.32
2023-02-15T23:02:00.503Z,9.27
2023-02-15T23:04:31.483Z,10.95
2023-02-15T23:07:02.572Z,11.52
2023-02-15T23:09:32.735Z,11.27
2023-02-15T23:12:02.291Z,12.55
2023-02-15T23:14:37.948Z,10.13
2023-02-15T23:17:07.496Z,12.25
2023-02-15T23:19:37.226Z,12.35
2023-02-15T23:22:06.936Z,13.40
2023-02-15T23:24:36.648Z,13.05
2023-02-15T23:27:25.865Z,11.80
2023-02-15T23:29:55.713Z,12.35
2023-02-15T23:32:25.448Z,11.20
2023-02-15T23:34:55.252Z,12.52
2023-02-15T23:37:24.916Z,11.57
2023-02-15T23:40:14.269Z,10.55
2023-02-15T23:42:43.912Z,10.50
2023-02-15T23:45:26.678Z,11.75
2023-02-15T23:48:16.005Z,11.43
2023-02-15T23:50:45.710Z,11.07
2023-02-15T23:53:15.316Z,10.57
2023-02-15T23:55:46.716Z,10.38
2023-02-15T23:58:21.226Z,11.20
